sensor_id;sensor_type;location;lat;lon;timestamp;P1;durP1;ratioP1;P2;durP2;ratioP2
79761;SDS011;69249;42.122;24.734;2023-06-05T00:01:14;11.13;;;5.90;;
79761;SDS011;69249;42.122;24.734;2023-06-05T00:03:40;13.93;;;5.82;;
79761;SDS011;69249;42.122;24.734;2023-06-05T00:06:08;8.05;;;5.60;;
79761;SDS011;69249;42.122;24.734;2023-06-05T00:08:34;14.60;;;5.53;;
79761;SDS011;69249;42.122;24.734;2023-06-05T00:11:00;14.85;;;5.63;;
79761;SDS011;69249;42.122;24.734;2023-06-05T00:13:26;11.27;;;5.07;;
79761;SDS011;69249;42.122;24.734;2023-06-05T00:15:51;11.30;;;4.63;;
79761;SDS011;69249;42.122;24.734;2023-06-05T00:18:18;7.28;;;4.53;;
79761;SDS011;69249;42.122;24.734;2023-06-05T00:20:44;6.95;;;4.70;;
79761;SDS011;69249;42.122;24.734;2023-06-05T00:23:10;11.38;;;5.07;;
79761;SDS011;69249;42.122;24.734;2023-06-05T00:25:38;7.90;;;4.70;;
79761;SDS011;69249;42.122;24.734;2023-06-05T00:28:04;15.18;;;4.05;;
79761;SDS011;69249;42.122;24.734;2023-06-05T00:30:30;10.52;;;4.10;;
79761;SDS011;69249;42.122;24.734;2023-06-05T00:32:56;12.82;;;4.07;;
79761;SDS011;69249;42.122;24.734;2023-06-05T00:35:22;8.60;;;3.58;;
79761;SDS011;69249;42.122;24.734;2023-06-05T00:37:47;8.27;;;3.40;;
79761;SDS011;69249;42.122;24.734;2023-06-05T00:40:13;5.93;;;3.42;;
79761;SDS011;69249;42.122;24.734;2023-06-05T00:42:39;7.57;;;3.05;;
79761;SDS011;69249;42.122;24.734;2023-06-05T00:45:05;10.15;;;3.30;;
79761;SDS011;69249;42.122;24.734;2023-06-05T00:47:31;10.23;;;4.28;;
79761;SDS011;69249;42.122;24.734;2023-06-05T00:49:58;11.30;;;4.40;;
79761;SDS011;69249;42.122;24.734;2023-06-05T00:52:24;10.98;;;4.30;;
79761;SDS011;69249;42.122;24.734;2023-06-05T00:54:52;12.02;;;5.50;;
79761;SDS011;69249;42.122;24.734;2023-06-05T00:57:18;9.63;;;5.50;;
79761;SDS011;69249;42.122;24.734;2023-06-05T00:59:44;15.73;;;7.38;;
79761;SDS011;69249;42.122;24.734;2023-06-05T01:02:11;14.32;;;7.60;;
79761;SDS011;69249;42.122;24.734;2023-06-05T01:04:41;12.20;;;6.50;;
79761;SDS011;69249;42.122;24.734;2023-06-05T01:07:12;9.45;;;4.97;;
79761;SDS011;69249;42.122;24.734;2023-06-05T01:09:42;7.25;;;3.95;;
79761;SDS011;69249;42.122;24.734;2023-06-05T01:12:17;13.18;;;4.13;;
79761;SDS011;69249;42.122;24.734;2023-06-05T01:15:01;7.28;;;3.90;;
79761;SDS011;69249;42.122;24.734;2023-06-05T01:17:27;9.00;;;3.50;;
79761;SDS011;69249;42.122;24.734;2023-06-05T01:19:55;9.40;;;3.55;;
79761;SDS011;69249;42.122;24.734;2023-06-05T01:22:24;11.35;;;3.65;;
79761;SDS011;69249;42.122;24.734;2023-06-05T01:24:51;8.77;;;3.05;;
79761;SDS011;69249;42.122;24.734;2023-06-05T01:35:06;10.00;;;3.70;;
79761;SDS011;69249;42.122;24.734;2023-06-05T01:37:34;4.95;;;2.90;;
79761;SDS011;69249;42.122;24.734;2023-06-05T01:40:10;6.97;;;2.88;;
79761;SDS011;69249;42.122;24.734;2023-06-05T01:42:39;6.80;;;2.70;;
79761;SDS011;69249;42.122;24.734;2023-06-05T01:45:06;7.80;;;3.13;;
79761;SDS011;69249;42.122;24.734;2023-06-05T01:47:34;4.07;;;2.47;;
79761;SDS011;69249;42.122;24.734;2023-06-05T01:50:01;7.75;;;2.67;;
79761;SDS011;69249;42.122;24.734;2023-06-05T01:52:27;10.55;;;3.20;;
79761;SDS011;69249;42.122;24.734;2023-06-05T01:54:53;11.55;;;3.15;;
79761;SDS011;69249;42.122;24.734;2023-06-05T01:57:20;8.63;;;3.20;;
79761;SDS011;69249;42.122;24.734;2023-06-05T01:59:46;6.90;;;2.70;;
79761;SDS011;69249;42.122;24.734;2023-06-05T02:02:11;11.38;;;2.75;;
79761;SDS011;69249;42.122;24.734;2023-06-05T02:04:39;6.15;;;2.47;;
79761;SDS011;69249;42.122;24.734;2023-06-05T02:07:05;10.15;;;2.78;;
79761;SDS011;69249;42.122;24.734;2023-06-05T02:09:32;9.10;;;2.60;;
79761;SDS011;69249;42.122;24.734;2023-06-05T02:11:58;5.80;;;2.60;;
79761;SDS011;69249;42.122;24.734;2023-06-05T02:14:29;7.90;;;2.60;;
79761;SDS011;69249;42.122;24.734;2023-06-05T02:16:57;9.13;;;3.00;;
79761;SDS011;69249;42.122;24.734;2023-06-05T02:19:23;8.52;;;2.65;;
79761;SDS011;69249;42.122;24.734;2023-06-05T02:21:49;9.88;;;3.20;;
79761;SDS011;69249;42.122;24.734;2023-06-05T02:24:16;6.90;;;3.10;;
79761;SDS011;69249;42.122;24.734;2023-06-05T02:26:43;9.85;;;4.22;;
79761;SDS011;69249;42.122;24.734;2023-06-05T02:29:10;8.32;;;3.78;;
79761;SDS011;69249;42.122;24.734;2023-06-05T02:31:35;10.48;;;4.80;;
79761;SDS011;69249;42.122;24.734;2023-06-05T02:34:01;9.23;;;3.65;;
79761;SDS011;69249;42.122;24.734;2023-06-05T02:36:27;7.55;;;3.65;;
79761;SDS011;69249;42.122;24.734;2023-06-05T02:38:57;10.15;;;3.75;;
79761;SDS011;69249;42.122;24.734;2023-06-05T02:41:24;8.38;;;3.03;;
79761;SDS011;69249;42.122;24.734;2023-06-05T02:43:52;6.25;;;2.75;;
79761;SDS011;69249;42.122;24.734;2023-06-05T02:46:19;12.93;;;3.08;;
79761;SDS011;69249;42.122;24.734;2023-06-05T02:48:46;7.20;;;2.55;;
79761;SDS011;69249;42.122;24.734;2023-06-05T02:51:12;7.07;;;2.63;;
79761;SDS011;69249;42.122;24.734;2023-06-05T02:53:38;11.02;;;2.97;;
79761;SDS011;69249;42.122;24.734;2023-06-05T02:56:04;5.72;;;2.38;;
79761;SDS011;69249;42.122;24.734;2023-06-05T02:58:30;8.90;;;2.85;;
79761;SDS011;69249;42.122;24.734;2023-06-05T03:01:02;8.35;;;2.40;;
79761;SDS011;69249;42.122;24.734;2023-06-05T03:03:31;7.07;;;2.63;;
79761;SDS011;69249;42.122;24.734;2023-06-05T03:05:57;7.07;;;3.03;;
79761;SDS011;69249;42.122;24.734;2023-06-05T03:08:30;6.95;;;3.38;;
79761;SDS011;69249;42.122;24.734;2023-06-05T03:10:57;9.10;;;3.03;;
79761;SDS011;69249;42.122;24.734;2023-06-05T03:13:24;5.70;;;2.53;;
79761;SDS011;69249;42.122;24.734;2023-06-05T03:15:50;7.35;;;2.47;;
79761;SDS011;69249;42.122;24.734;2023-06-05T03:18:18;12.65;;;2.63;;
79761;SDS011;69249;42.122;24.734;2023-06-05T03:20:46;7.38;;;2.67;;
79761;SDS011;69249;42.122;24.734;2023-06-05T03:23:12;11.73;;;2.90;;
79761;SDS011;69249;42.122;24.734;2023-06-05T03:25:38;5.82;;;2.75;;
79761;SDS011;69249;42.122;24.734;2023-06-05T03:28:04;6.55;;;2.65;;
79761;SDS011;69249;42.122;24.734;2023-06-05T03:30:30;11.85;;;2.85;;
79761;SDS011;69249;42.122;24.734;2023-06-05T03:32:55;7.10;;;3.05;;
79761;SDS011;69249;42.122;24.734;2023-06-05T03:35:21;10.73;;;3.00;;
79761;SDS011;69249;42.122;24.734;2023-06-05T03:37:47;11.30;;;3.10;;
79761;SDS011;69249;42.122;24.734;2023-06-05T03:40:12;7.97;;;3.08;;
79761;SDS011;69249;42.122;24.734;2023-06-05T03:42:38;8.35;;;3.00;;
79761;SDS011;69249;42.122;24.734;2023-06-05T03:45:04;9.25;;;2.83;;
79761;SDS011;69249;42.122;24.734;2023-06-05T03:47:30;9.18;;;2.63;;
79761;SDS011;69249;42.122;24.734;2023-06-05T03:49:55;8.38;;;2.88;;
79761;SDS011;69249;42.122;24.734;2023-06-05T03:52:21;7.88;;;2.80;;
79761;SDS011;69249;42.122;24.734;2023-06-05T03:54:50;7.75;;;2.75;;
79761;SDS011;69249;42.122;24.734;2023-06-05T03:57:19;12.90;;;3.13;;
79761;SDS011;69249;42.122;24.734;2023-06-05T03:59:45;8.18;;;2.80;;
79761;SDS011;69249;42.122;24.734;2023-06-05T04:02:12;10.82;;;3.15;;
79761;SDS011;69249;42.122;24.734;2023-06-05T04:04:38;11.70;;;3.42;;
79761;SDS011;69249;42.122;24.734;2023-06-05T04:07:04;7.50;;;3.40;;
79761;SDS011;69249;42.122;24.734;2023-06-05T04:09:31;15.95;;;8.60;;
79761;SDS011;69249;42.122;24.734;2023-06-05T04:11:57;18.98;;;12.32;;
79761;SDS011;69249;42.122;24.734;2023-06-05T04:14:23;16.08;;;11.57;;
79761;SDS011;69249;42.122;24.734;2023-06-05T04:16:48;16.95;;;11.70;;
79761;SDS011;69249;42.122;24.734;2023-06-05T04:19:24;16.23;;;11.23;;
79761;SDS011;69249;42.122;24.734;2023-06-05T04:21:50;13.43;;;8.35;;
79761;SDS011;69249;42.122;24.734;2023-06-05T04:24:16;15.70;;;6.95;;
79761;SDS011;69249;42.122;24.734;2023-06-05T04:26:42;13.43;;;5.32;;
79761;SDS011;69249;42.122;24.734;2023-06-05T04:29:08;16.45;;;4.80;;
79761;SDS011;69249;42.122;24.734;2023-06-05T04:31:43;15.10;;;4.90;;
79761;SDS011;69249;42.122;24.734;2023-06-05T04:34:10;9.63;;;3.90;;
79761;SDS011;69249;42.122;24.734;2023-06-05T04:36:36;11.05;;;3.80;;
79761;SDS011;69249;42.122;24.734;2023-06-05T04:39:03;8.95;;;3.50;;
79761;SDS011;69249;42.122;24.734;2023-06-05T04:41:31;9.75;;;3.33;;
79761;SDS011;69249;42.122;24.734;2023-06-05T04:43:57;9.35;;;3.05;;
79761;SDS011;69249;42.122;24.734;2023-06-05T04:46:25;10.23;;;3.50;;
79761;SDS011;69249;42.122;24.734;2023-06-05T04:48:51;8.35;;;3.60;;
79761;SDS011;69249;42.122;24.734;2023-06-05T04:51:31;16.37;;;3.87;;
79761;SDS011;69249;42.122;24.734;2023-06-05T04:53:58;14.40;;;3.55;;
79761;SDS011;69249;42.122;24.734;2023-06-05T04:56:24;9.40;;;4.22;;
79761;SDS011;69249;42.122;24.734;2023-06-05T04:58:50;12.82;;;4.05;;
79761;SDS011;69249;42.122;24.734;2023-06-05T05:01:18;9.02;;;3.70;;
79761;SDS011;69249;42.122;24.734;2023-06-05T05:03:44;8.68;;;4.30;;
79761;SDS011;69249;42.122;24.734;2023-06-05T05:06:16;9.77;;;4.00;;
79761;SDS011;69249;42.122;24.734;2023-06-05T05:08:45;11.88;;;4.30;;
79761;SDS011;69249;42.122;24.734;2023-06-05T05:11:13;16.30;;;4.35;;
79761;SDS011;69249;42.122;24.734;2023-06-05T05:13:39;12.75;;;4.50;;
79761;SDS011;69249;42.122;24.734;2023-06-05T05:16:06;13.63;;;4.88;;
79761;SDS011;69249;42.122;24.734;2023-06-05T05:18:33;12.77;;;4.30;;
79761;SDS011;69249;42.122;24.734;2023-06-05T05:21:05;11.55;;;4.78;;
79761;SDS011;69249;42.122;24.734;2023-06-05T05:23:32;17.23;;;4.53;;
79761;SDS011;69249;42.122;24.734;2023-06-05T05:25:58;14.70;;;4.95;;
79761;SDS011;69249;42.122;24.734;2023-06-05T05:28:25;80.40;;;7.97;;
79761;SDS011;69249;42.122;24.734;2023-06-05T05:30:51;15.77;;;4.63;;
79761;SDS011;69249;42.122;24.734;2023-06-05T05:33:17;11.18;;;5.13;;
79761;SDS011;69249;42.122;24.734;2023-06-05T05:35:44;25.75;;;5.07;;
79761;SDS011;69249;42.122;24.734;2023-06-05T05:38:10;13.80;;;4.60;;
79761;SDS011;69249;42.122;24.734;2023-06-05T05:40:36;18.50;;;4.43;;
79761;SDS011;69249;42.122;24.734;2023-06-05T05:43:01;18.33;;;4.53;;
79761;SDS011;69249;42.122;24.734;2023-06-05T05:45:27;18.67;;;5.45;;
79761;SDS011;69249;42.122;24.734;2023-06-05T05:47:53;13.18;;;4.50;;
79761;SDS011;69249;42.122;24.734;2023-06-05T05:50:18;15.65;;;4.68;;
79761;SDS011;69249;42.122;24.734;2023-06-05T05:52:44;15.48;;;5.80;;
79761;SDS011;69249;42.122;24.734;2023-06-05T05:55:10;13.70;;;6.00;;
79761;SDS011;69249;42.122;24.734;2023-06-05T05:57:36;15.57;;;5.60;;
79761;SDS011;69249;42.122;24.734;2023-06-05T06:00:03;11.63;;;5.03;;
79761;SDS011;69249;42.122;24.734;2023-06-05T06:02:37;14.52;;;5.53;;
79761;SDS011;69249;42.122;24.734;2023-06-05T06:05:04;14.13;;;5.15;;
79761;SDS011;69249;42.122;24.734;2023-06-05T06:07:30;16.67;;;4.82;;
79761;SDS011;69249;42.122;24.734;2023-06-05T06:09:56;17.88;;;5.53;;
79761;SDS011;69249;42.122;24.734;2023-06-05T06:12:26;12.63;;;5.38;;
79761;SDS011;69249;42.122;24.734;2023-06-05T06:14:53;17.15;;;6.10;;
79761;SDS011;69249;42.122;24.734;2023-06-05T06:17:19;21.77;;;8.10;;
79761;SDS011;69249;42.122;24.734;2023-06-05T06:19:45;22.10;;;7.80;;
79761;SDS011;69249;42.122;24.734;2023-06-05T06:22:12;20.10;;;7.97;;
79761;SDS011;69249;42.122;24.734;2023-06-05T06:24:39;20.70;;;8.20;;
79761;SDS011;69249;42.122;24.734;2023-06-05T06:27:05;21.33;;;9.57;;
79761;SDS011;69249;42.122;24.734;2023-06-05T06:29:36;21.33;;;8.88;;
79761;SDS011;69249;42.122;24.734;2023-06-05T06:32:02;26.90;;;12.55;;
79761;SDS011;69249;42.122;24.734;2023-06-05T06:34:28;27.90;;;12.50;;
79761;SDS011;69249;42.122;24.734;2023-06-05T06:36:54;21.85;;;11.27;;
79761;SDS011;69249;42.122;24.734;2023-06-05T06:39:23;23.85;;;10.80;;
79761;SDS011;69249;42.122;24.734;2023-06-05T06:41:50;20.42;;;11.35;;
79761;SDS011;69249;42.122;24.734;2023-06-05T06:44:18;18.95;;;11.45;;
79761;SDS011;69249;42.122;24.734;2023-06-05T06:46:44;21.42;;;11.98;;
79761;SDS011;69249;42.122;24.734;2023-06-05T06:49:10;22.73;;;11.55;;
79761;SDS011;69249;42.122;24.734;2023-06-05T06:51:36;18.58;;;12.00;;
79761;SDS011;69249;42.122;24.734;2023-06-05T06:54:02;19.98;;;11.70;;
79761;SDS011;69249;42.122;24.734;2023-06-05T06:56:31;23.40;;;11.75;;
79761;SDS011;69249;42.122;24.734;2023-06-05T06:58:56;25.65;;;12.30;;
79761;SDS011;69249;42.122;24.734;2023-06-05T07:01:22;25.30;;;14.43;;
79761;SDS011;69249;42.122;24.734;2023-06-05T07:03:49;26.98;;;14.23;;
79761;SDS011;69249;42.122;24.734;2023-06-05T07:06:15;23.80;;;15.35;;
79761;SDS011;69249;42.122;24.734;2023-06-05T07:08:41;24.55;;;15.25;;
79761;SDS011;69249;42.122;24.734;2023-06-05T07:11:06;25.65;;;15.65;;
79761;SDS011;69249;42.122;24.734;2023-06-05T07:13:32;23.52;;;15.50;;
79761;SDS011;69249;42.122;24.734;2023-06-05T07:15:58;26.83;;;14.88;;
79761;SDS011;69249;42.122;24.734;2023-06-05T07:18:24;22.90;;;15.48;;
79761;SDS011;69249;42.122;24.734;2023-06-05T07:20:49;20.23;;;15.10;;
79761;SDS011;69249;42.122;24.734;2023-06-05T07:23:15;27.13;;;16.73;;
79761;SDS011;69249;42.122;24.734;2023-06-05T07:25:43;24.25;;;16.45;;
79761;SDS011;69249;42.122;24.734;2023-06-05T07:28:09;27.58;;;17.02;;
79761;SDS011;69249;42.122;24.734;2023-06-05T07:30:36;25.48;;;17.42;;
79761;SDS011;69249;42.122;24.734;2023-06-05T07:33:02;25.80;;;17.17;;
79761;SDS011;69249;42.122;24.734;2023-06-05T07:35:28;28.13;;;17.42;;
79761;SDS011;69249;42.122;24.734;2023-06-05T07:37:54;23.58;;;16.60;;
79761;SDS011;69249;42.122;24.734;2023-06-05T07:40:26;23.52;;;16.67;;
79761;SDS011;69249;42.122;24.734;2023-06-05T07:42:52;26.55;;;16.88;;
79761;SDS011;69249;42.122;24.734;2023-06-05T07:45:18;22.92;;;16.88;;
79761;SDS011;69249;42.122;24.734;2023-06-05T07:47:44;28.02;;;18.35;;
79761;SDS011;69249;42.122;24.734;2023-06-05T07:50:10;27.15;;;18.23;;
79761;SDS011;69249;42.122;24.734;2023-06-05T07:52:36;25.60;;;17.02;;
79761;SDS011;69249;42.122;24.734;2023-06-05T07:55:05;26.27;;;16.67;;
79761;SDS011;69249;42.122;24.734;2023-06-05T07:57:50;29.48;;;17.00;;
79761;SDS011;69249;42.122;24.734;2023-06-05T08:00:27;21.50;;;16.00;;
79761;SDS011;69249;42.122;24.734;2023-06-05T08:02:53;19.30;;;15.32;;
79761;SDS011;69249;42.122;24.734;2023-06-05T08:05:25;24.27;;;15.52;;
79761;SDS011;69249;42.122;24.734;2023-06-05T08:07:51;23.00;;;15.65;;
79761;SDS011;69249;42.122;24.734;2023-06-05T08:10:17;24.80;;;15.23;;
79761;SDS011;69249;42.122;24.734;2023-06-05T08:12:43;22.60;;;15.18;;
79761;SDS011;69249;42.122;24.734;2023-06-05T08:15:08;26.33;;;13.68;;
79761;SDS011;69249;42.122;24.734;2023-06-05T08:17:35;19.45;;;13.65;;
79761;SDS011;69249;42.122;24.734;2023-06-05T08:20:01;21.65;;;12.90;;
79761;SDS011;69249;42.122;24.734;2023-06-05T08:22:30;18.33;;;14.02;;
79761;SDS011;69249;42.122;24.734;2023-06-05T08:25:02;18.50;;;15.13;;
79761;SDS011;69249;42.122;24.734;2023-06-05T08:27:29;26.77;;;14.57;;
79761;SDS011;69249;42.122;24.734;2023-06-05T08:29:55;20.40;;;14.32;;
79761;SDS011;69249;42.122;24.734;2023-06-05T08:32:24;18.52;;;12.68;;
79761;SDS011;69249;42.122;24.734;2023-06-05T08:34:50;18.33;;;12.63;;
79761;SDS011;69249;42.122;24.734;2023-06-05T08:37:25;20.65;;;12.45;;
79761;SDS011;69249;42.122;24.734;2023-06-05T08:39:53;20.00;;;13.20;;
79761;SDS011;69249;42.122;24.734;2023-06-05T08:42:24;17.95;;;12.43;;
79761;SDS011;69249;42.122;24.734;2023-06-05T08:44:56;17.27;;;12.32;;
79761;SDS011;69249;42.122;24.734;2023-06-05T08:48:09;17.90;;;12.18;;
79761;SDS011;69249;42.122;24.734;2023-06-05T08:50:38;16.10;;;11.85;;
79761;SDS011;69249;42.122;24.734;2023-06-05T08:53:07;20.33;;;12.77;;
79761;SDS011;69249;42.122;24.734;2023-06-05T08:55:34;24.88;;;12.15;;
79761;SDS011;69249;42.122;24.734;2023-06-05T08:58:00;20.50;;;12.13;;
79761;SDS011;69249;42.122;24.734;2023-06-05T09:00:31;16.00;;;11.88;;
79761;SDS011;69249;42.122;24.734;2023-06-05T09:05:26;14.48;;;10.48;;
79761;SDS011;69249;42.122;24.734;2023-06-05T09:07:52;15.93;;;10.93;;
79761;SDS011;69249;42.122;24.734;2023-06-05T09:10:25;13.68;;;9.88;;
79761;SDS011;69249;42.122;24.734;2023-06-05T09:12:59;15.07;;;11.23;;
79761;SDS011;69249;42.122;24.734;2023-06-05T09:15:30;14.70;;;9.93;;
79761;SDS011;69249;42.122;24.734;2023-06-05T09:18:10;15.93;;;10.57;;
79761;SDS011;69249;42.122;24.734;2023-06-05T09:20:38;12.55;;;10.35;;
79761;SDS011;69249;42.122;24.734;2023-06-05T09:23:24;21.52;;;14.57;;
79761;SDS011;69249;42.122;24.734;2023-06-05T09:25:52;20.92;;;10.68;;
79761;SDS011;69249;42.122;24.734;2023-06-05T09:28:22;16.90;;;9.90;;
79761;SDS011;69249;42.122;24.734;2023-06-05T09:30:58;18.60;;;9.75;;
79761;SDS011;69249;42.122;24.734;2023-06-05T09:33:27;15.98;;;9.20;;
79761;SDS011;69249;42.122;24.734;2023-06-05T09:36:10;16.67;;;9.00;;
79761;SDS011;69249;42.122;24.734;2023-06-05T09:38:38;12.55;;;7.38;;
79761;SDS011;69249;42.122;24.734;2023-06-05T09:41:06;12.63;;;7.97;;
79761;SDS011;69249;42.122;24.734;2023-06-05T09:43:36;13.45;;;7.72;;
79761;SDS011;69249;42.122;24.734;2023-06-05T09:46:21;15.18;;;7.30;;
79761;SDS011;69249;42.122;24.734;2023-06-05T09:48:52;13.93;;;7.55;;
79761;SDS011;69249;42.122;24.734;2023-06-05T09:51:22;12.27;;;6.90;;
79761;SDS011;69249;42.122;24.734;2023-06-05T09:53:48;18.33;;;6.97;;
79761;SDS011;69249;42.122;24.734;2023-06-05T09:56:18;7.82;;;6.90;;
79761;SDS011;69249;42.122;24.734;2023-06-05T09:58:47;14.93;;;6.20;;
79761;SDS011;69249;42.122;24.734;2023-06-05T10:01:17;10.70;;;6.35;;
79761;SDS011;69249;42.122;24.734;2023-06-05T10:03:48;10.10;;;5.90;;
79761;SDS011;69249;42.122;24.734;2023-06-05T10:06:28;9.10;;;5.90;;
79761;SDS011;69249;42.122;24.734;2023-06-05T10:08:55;8.32;;;5.57;;
79761;SDS011;69249;42.122;24.734;2023-06-05T10:11:22;6.35;;;4.68;;
79761;SDS011;69249;42.122;24.734;2023-06-05T10:13:49;11.40;;;6.13;;
79761;SDS011;69249;42.122;24.734;2023-06-05T10:16:16;11.82;;;5.35;;
79761;SDS011;69249;42.122;24.734;2023-06-05T10:18:48;19.42;;;6.63;;
79761;SDS011;69249;42.122;24.734;2023-06-05T10:23:59;10.70;;;5.10;;
79761;SDS011;69249;42.122;24.734;2023-06-05T10:32:03;6.45;;;4.72;;
79761;SDS011;69249;42.122;24.734;2023-06-05T10:39:57;7.10;;;4.10;;
79761;SDS011;69249;42.122;24.734;2023-06-05T10:42:24;6.55;;;3.85;;
79761;SDS011;69249;42.122;24.734;2023-06-05T10:44:50;9.93;;;3.90;;
79761;SDS011;69249;42.122;24.734;2023-06-05T10:52:48;6.30;;;4.05;;
79761;SDS011;69249;42.122;24.734;2023-06-05T10:55:15;5.18;;;3.70;;
79761;SDS011;69249;42.122;24.734;2023-06-05T11:00:37;12.23;;;3.70;;
79761;SDS011;69249;42.122;24.734;2023-06-05T11:03:04;6.22;;;4.18;;
79761;SDS011;69249;42.122;24.734;2023-06-05T11:05:31;18.13;;;4.32;;
79761;SDS011;69249;42.122;24.734;2023-06-05T11:13:56;6.38;;;3.50;;
79761;SDS011;69249;42.122;24.734;2023-06-05T11:16:30;6.53;;;3.22;;
79761;SDS011;69249;42.122;24.734;2023-06-05T11:22:09;5.88;;;3.13;;
79761;SDS011;69249;42.122;24.734;2023-06-05T11:24:37;4.03;;;3.25;;
79761;SDS011;69249;42.122;24.734;2023-06-05T11:27:03;11.95;;;3.63;;
79761;SDS011;69249;42.122;24.734;2023-06-05T11:29:31;7.55;;;2.97;;
79761;SDS011;69249;42.122;24.734;2023-06-05T11:31:57;6.50;;;3.15;;
79761;SDS011;69249;42.122;24.734;2023-06-05T11:34:23;4.90;;;2.95;;
79761;SDS011;69249;42.122;24.734;2023-06-05T11:36:50;7.15;;;3.30;;
79761;SDS011;69249;42.122;24.734;2023-06-05T11:39:16;3.45;;;2.95;;
79761;SDS011;69249;42.122;24.734;2023-06-05T11:41:47;3.38;;;2.70;;
79761;SDS011;69249;42.122;24.734;2023-06-05T11:44:15;6.00;;;2.72;;
79761;SDS011;69249;42.122;24.734;2023-06-05T11:46:55;6.57;;;3.10;;
79761;SDS011;69249;42.122;24.734;2023-06-05T11:49:24;6.95;;;2.90;;
79761;SDS011;69249;42.122;24.734;2023-06-05T11:51:52;4.03;;;3.10;;
79761;SDS011;69249;42.122;24.734;2023-06-05T11:54:28;7.88;;;3.20;;
79761;SDS011;69249;42.122;24.734;2023-06-05T11:57:05;8.27;;;3.25;;
79761;SDS011;69249;42.122;24.734;2023-06-05T11:59:36;4.93;;;3.03;;
79761;SDS011;69249;42.122;24.734;2023-06-05T12:02:02;3.33;;;2.75;;
79761;SDS011;69249;42.122;24.734;2023-06-05T12:04:29;4.85;;;2.70;;
79761;SDS011;69249;42.122;24.734;2023-06-05T12:06:59;3.63;;;3.07;;
79761;SDS011;69249;42.122;24.734;2023-06-05T12:09:27;4.82;;;2.95;;
79761;SDS011;69249;42.122;24.734;2023-06-05T12:11:57;6.30;;;3.17;;
79761;SDS011;69249;42.122;24.734;2023-06-05T12:14:31;9.45;;;3.42;;
79761;SDS011;69249;42.122;24.734;2023-06-05T12:16:58;6.03;;;3.08;;
79761;SDS011;69249;42.122;24.734;2023-06-05T12:19:24;4.10;;;2.83;;
79761;SDS011;69249;42.122;24.734;2023-06-05T12:21:50;4.38;;;3.00;;
79761;SDS011;69249;42.122;24.734;2023-06-05T12:24:25;4.65;;;2.88;;
79761;SDS011;69249;42.122;24.734;2023-06-05T12:29:25;8.18;;;4.20;;
79761;SDS011;69249;42.122;24.734;2023-06-05T12:31:53;10.63;;;3.13;;
79761;SDS011;69249;42.122;24.734;2023-06-05T12:34:38;7.40;;;2.97;;
79761;SDS011;69249;42.122;24.734;2023-06-05T12:37:12;5.75;;;3.40;;
79761;SDS011;69249;42.122;24.734;2023-06-05T12:39:47;10.73;;;3.10;;
79761;SDS011;69249;42.122;24.734;2023-06-05T12:42:13;7.45;;;3.47;;
79761;SDS011;69249;42.122;24.734;2023-06-05T12:44:39;7.68;;;3.03;;
79761;SDS011;69249;42.122;24.734;2023-06-05T12:47:05;6.70;;;3.13;;
79761;SDS011;69249;42.122;24.734;2023-06-05T12:49:30;7.28;;;2.90;;
79761;SDS011;69249;42.122;24.734;2023-06-05T12:51:56;4.22;;;2.78;;
79761;SDS011;69249;42.122;24.734;2023-06-05T12:54:22;6.72;;;3.30;;
79761;SDS011;69249;42.122;24.734;2023-06-05T12:56:48;7.00;;;3.05;;
79761;SDS011;69249;42.122;24.734;2023-06-05T12:59:14;10.82;;;3.97;;
79761;SDS011;69249;42.122;24.734;2023-06-05T13:01:40;5.95;;;3.20;;
79761;SDS011;69249;42.122;24.734;2023-06-05T13:04:06;5.90;;;2.83;;
79761;SDS011;69249;42.122;24.734;2023-06-05T13:06:31;6.78;;;3.17;;
79761;SDS011;69249;42.122;24.734;2023-06-05T13:09:00;4.47;;;3.33;;
79761;SDS011;69249;42.122;24.734;2023-06-05T13:11:26;5.20;;;3.15;;
79761;SDS011;69249;42.122;24.734;2023-06-05T13:13:51;5.05;;;3.38;;
79761;SDS011;69249;42.122;24.734;2023-06-05T13:16:17;7.85;;;3.25;;
79761;SDS011;69249;42.122;24.734;2023-06-05T13:18:43;5.70;;;3.22;;
79761;SDS011;69249;42.122;24.734;2023-06-05T13:21:08;7.20;;;3.20;;
79761;SDS011;69249;42.122;24.734;2023-06-05T13:23:34;12.55;;;3.10;;
79761;SDS011;69249;42.122;24.734;2023-06-05T13:26:00;9.48;;;3.35;;
79761;SDS011;69249;42.122;24.734;2023-06-05T13:28:26;5.55;;;3.35;;
79761;SDS011;69249;42.122;24.734;2023-06-05T13:30:51;14.27;;;3.90;;
79761;SDS011;69249;42.122;24.734;2023-06-05T13:33:18;4.38;;;3.03;;
79761;SDS011;69249;42.122;24.734;2023-06-05T13:35:44;4.80;;;3.33;;
79761;SDS011;69249;42.122;24.734;2023-06-05T13:38:10;7.55;;;3.00;;
79761;SDS011;69249;42.122;24.734;2023-06-05T13:40:36;6.95;;;3.10;;
79761;SDS011;69249;42.122;24.734;2023-06-05T13:43:01;7.95;;;3.90;;
79761;SDS011;69249;42.122;24.734;2023-06-05T13:45:27;7.15;;;3.10;;
79761;SDS011;69249;42.122;24.734;2023-06-05T13:47:53;3.15;;;2.78;;
79761;SDS011;69249;42.122;24.734;2023-06-05T13:50:18;6.55;;;3.05;;
79761;SDS011;69249;42.122;24.734;2023-06-05T13:52:47;14.02;;;3.30;;
79761;SDS011;69249;42.122;24.734;2023-06-05T13:55:13;5.47;;;3.15;;
79761;SDS011;69249;42.122;24.734;2023-06-05T13:57:39;9.35;;;3.85;;
79761;SDS011;69249;42.122;24.734;2023-06-05T14:00:05;8.55;;;3.90;;
79761;SDS011;69249;42.122;24.734;2023-06-05T14:02:32;5.18;;;3.33;;
79761;SDS011;69249;42.122;24.734;2023-06-05T14:04:58;3.35;;;3.00;;
79761;SDS011;69249;42.122;24.734;2023-06-05T14:07:23;5.35;;;3.40;;
79761;SDS011;69249;42.122;24.734;2023-06-05T14:09:50;5.40;;;3.60;;
79761;SDS011;69249;42.122;24.734;2023-06-05T14:12:16;6.63;;;3.15;;
79761;SDS011;69249;42.122;24.734;2023-06-05T14:14:42;8.90;;;3.15;;
79761;SDS011;69249;42.122;24.734;2023-06-05T14:17:08;4.40;;;3.28;;
79761;SDS011;69249;42.122;24.734;2023-06-05T14:19:34;6.38;;;3.60;;
79761;SDS011;69249;42.122;24.734;2023-06-05T14:22:00;10.07;;;3.60;;
79761;SDS011;69249;42.122;24.734;2023-06-05T14:24:26;6.32;;;3.20;;
79761;SDS011;69249;42.122;24.734;2023-06-05T14:26:53;8.07;;;3.42;;
79761;SDS011;69249;42.122;24.734;2023-06-05T14:29:20;6.68;;;3.33;;
79761;SDS011;69249;42.122;24.734;2023-06-05T14:31:45;6.40;;;3.30;;
79761;SDS011;69249;42.122;24.734;2023-06-05T14:34:11;6.15;;;3.20;;
79761;SDS011;69249;42.122;24.734;2023-06-05T14:36:37;13.60;;;3.42;;
79761;SDS011;69249;42.122;24.734;2023-06-05T14:39:02;10.68;;;3.47;;
79761;SDS011;69249;42.122;24.734;2023-06-05T14:41:29;7.43;;;3.08;;
79761;SDS011;69249;42.122;24.734;2023-06-05T14:43:58;7.82;;;3.10;;
79761;SDS011;69249;42.122;24.734;2023-06-05T14:46:24;5.18;;;2.90;;
79761;SDS011;69249;42.122;24.734;2023-06-05T14:48:49;6.85;;;3.05;;
79761;SDS011;69249;42.122;24.734;2023-06-05T14:51:16;4.80;;;2.92;;
79761;SDS011;69249;42.122;24.734;2023-06-05T14:53:42;10.18;;;2.92;;
79761;SDS011;69249;42.122;24.734;2023-06-05T14:56:09;4.95;;;2.80;;
79761;SDS011;69249;42.122;24.734;2023-06-05T14:58:34;10.88;;;3.40;;
79761;SDS011;69249;42.122;24.734;2023-06-05T15:01:00;5.32;;;3.20;;
79761;SDS011;69249;42.122;24.734;2023-06-05T15:03:26;9.20;;;3.20;;
79761;SDS011;69249;42.122;24.734;2023-06-05T15:05:52;5.22;;;2.65;;
79761;SDS011;69249;42.122;24.734;2023-06-05T15:08:18;5.63;;;3.10;;
79761;SDS011;69249;42.122;24.734;2023-06-05T15:10:44;5.72;;;3.08;;
79761;SDS011;69249;42.122;24.734;2023-06-05T15:13:10;12.75;;;3.20;;